Portada
METAR-TAF:

METAR-TAF

Aeroports :

Haikou, Xina

latitud: 19-56-05N, longitud: 110-27-32E, altitud: 23 m

Observació

L'informe es va fer fa 34 minuts, a les 14:00 UTC
Vent 4 kt amb direcció variable
Temperatura 16°C
Humitat 94%
Pressió 1015 hPa
Visibilitat: 6000 m
Escasses núvols a una alçada de 800 ft

METAR: ZJHK 151400Z VRB02MPS 6000 FEW008 16/15 Q1015 NOSIG

Hora: 22:34 (14:34 UTC)

Pronòstic

L'informe es va fer fa 5 hores i 23 minuts, a les 09:11 UTC
Pronòstic vàlid del 15 a les 12 UTC al 16 a les 12 UTC
Vent 8 kt del Nord-Est
Visibilitat: 5000 m
Núvols disperses a una alçada de 1500 ft
boirina
Temporalment
l' 15 a les 20 UTC al 16 a les 01 UTC
Visibilitat: 0500 m
Cel ennuvolat a una alçada de 200 ft
boira

TAF: ZJHK 150911Z 1512/1612 05004MPS 5000 BR SCT015 TX24/1606Z TN12/1521Z TEMPO 1520/1601 0500 FG BKN002

Observacions i pronòstics meteorològics de més de 4000 aeroports (METAR i TAF).

Les estacions disponibles són els punts grocs i vermells al mapa.

Posi el ratolí al punt desitjat per veure el nom de l'estació.

Feu clic per veure les observacions i els pronòstics meteorològics.

Per canviar el mapa: feu clic els botons verds amb una creu de color negre per apropar; al botó verd amb un guió per allunyar la imatge; o en les fletxes verdes per a mapes adjacents.


METAR-TAF: